createdAt,value
2022-09-07T00:01:57.862Z,11.98
2022-09-07T00:13:57.908Z,11.96
2022-09-07T00:25:57.927Z,11.95
2022-09-07T00:37:57.937Z,11.93
2022-09-07T00:49:57.903Z,11.90
2022-09-07T01:01:58.081Z,11.90
2022-09-07T01:13:57.893Z,11.89
2022-09-07T01:25:57.860Z,11.87
2022-09-07T01:37:57.870Z,11.85
2022-09-07T01:49:57.876Z,11.84
2022-09-07T02:01:59.472Z,11.83
2022-09-07T02:13:57.868Z,11.82
2022-09-07T02:25:58.029Z,11.80
2022-09-07T02:37:57.865Z,11.79
2022-09-07T02:49:57.876Z,11.77
2022-09-07T03:01:57.862Z,11.76
2022-09-07T03:13:57.816Z,11.74
2022-09-07T03:25:57.876Z,11.72
2022-09-07T03:37:57.882Z,11.72
2022-09-07T03:49:58.466Z,11.70
2022-09-07T04:01:58.481Z,11.69
2022-09-07T04:13:58.506Z,11.68
2022-09-07T04:25:58.149Z,11.66
2022-09-07T04:37:57.929Z,11.63
2022-09-07T04:49:57.981Z,11.63
2022-09-07T05:01:58.614Z,11.62
2022-09-07T05:13:58.253Z,11.61
2022-09-07T05:25:57.849Z,11.59
2022-09-07T05:37:57.848Z,11.58
2022-09-07T05:49:57.864Z,11.56
2022-09-07T06:01:57.939Z,11.60
2022-09-07T06:13:57.966Z,11.60
2022-09-07T06:25:57.864Z,11.61
2022-09-07T06:37:57.860Z,11.61
2022-09-07T06:49:57.961Z,11.64
2022-09-07T07:01:57.869Z,11.71
2022-09-07T07:13:57.880Z,11.77
2022-09-07T07:25:57.872Z,11.84
2022-09-07T08:01:58.037Z,11.92
2022-09-07T08:13:57.865Z,11.94
2022-09-07T08:25:57.870Z,12.01
2022-09-07T08:37:58.810Z,12.01
2022-09-07T08:49:57.851Z,12.10
2022-09-07T09:02:27.855Z,12.14
2022-09-07T09:13:57.863Z,12.21
2022-09-07T09:25:57.867Z,12.33
2022-09-07T09:37:57.844Z,12.32
2022-09-07T09:49:57.894Z,12.69
2022-09-07T10:13:57.863Z,12.65
2022-09-07T10:25:57.848Z,12.64
2022-09-07T10:37:57.856Z,12.66
2022-09-07T10:50:22.861Z,12.66
2022-09-07T11:01:57.904Z,12.66
2022-09-07T11:14:12.645Z,12.66
2022-09-07T11:25:57.885Z,12.66
2022-09-07T11:37:57.856Z,12.66
2022-09-07T11:49:59.486Z,12.66
2022-09-07T12:01:57.882Z,12.66
2022-09-07T12:13:57.842Z,12.66
2022-09-07T12:25:57.867Z,12.66
2022-09-07T12:37:57.868Z,12.67
2022-09-07T12:49:57.899Z,12.64
2022-09-07T13:01:57.942Z,12.66
2022-09-07T13:14:08.447Z,12.67
2022-09-07T13:25:57.872Z,12.66
2022-09-07T13:37:57.863Z,12.67
2022-09-07T13:49:57.868Z,12.66
2022-09-07T14:01:57.905Z,12.67
2022-09-07T14:13:58.600Z,12.66
2022-09-07T14:26:17.986Z,12.67
2022-09-07T14:37:57.866Z,12.67
2022-09-07T14:49:57.876Z,12.64
2022-09-07T15:01:57.901Z,12.62
2022-09-07T15:13:57.855Z,12.60
2022-09-07T15:25:57.861Z,12.60
2022-09-07T15:38:02.439Z,12.60
2022-09-07T15:49:57.872Z,12.61
2022-09-07T16:01:58.514Z,12.60
2022-09-07T16:14:01.744Z,12.59
2022-09-07T16:25:57.892Z,12.58
2022-09-07T16:49:57.874Z,12.55
2022-09-07T17:01:57.935Z,12.55
2022-09-07T17:13:58.007Z,12.54
2022-09-07T17:25:57.975Z,12.52
2022-09-07T17:37:58.187Z,12.50
2022-09-07T17:49:57.923Z,12.48
2022-09-07T18:01:57.930Z,12.47
2022-09-07T18:13:57.875Z,12.44
2022-09-07T18:25:57.870Z,12.43
2022-09-07T18:37:57.846Z,12.41
2022-09-07T18:49:57.892Z,12.38
2022-09-07T19:02:03.595Z,12.38
2022-09-07T19:13:57.857Z,12.35
2022-09-07T19:25:57.865Z,12.34
2022-09-07T19:37:57.875Z,12.32
2022-09-07T19:49:57.889Z,12.30
2022-09-07T20:01:57.871Z,12.28
2022-09-07T20:13:57.872Z,12.27
2022-09-07T20:25:57.865Z,12.25
2022-09-07T20:37:57.849Z,12.23
2022-09-07T20:49:57.874Z,12.22
2022-09-07T21:01:57.904Z,12.19
2022-09-07T21:13:57.872Z,12.19
2022-09-07T21:25:57.882Z,12.15
2022-09-07T21:37:57.877Z,12.15
2022-09-07T21:49:57.905Z,12.13
2022-09-07T22:01:57.943Z,12.12
2022-09-07T22:13:57.871Z,12.09
2022-09-07T22:25:57.882Z,12.07
2022-09-07T22:37:57.865Z,12.07
2022-09-07T22:49:57.894Z,12.04
2022-09-07T23:01:57.874Z,12.03
2022-09-07T23:13:57.868Z,12.02
2022-09-07T23:25:57.885Z,12.00
2022-09-07T23:37:57.882Z,11.98
2022-09-07T23:49:57.830Z,11.96
